Time;durP1;ratioP1;P1;durP2;ratioP2;P2;SDS_P1;SDS_P2;PMS_P1;PMS_P2;Temp;Humidity;BMP_temperature;BMP_pressure;BME280_temperature;BME280_humidity;BME280_pressure;Samples;Min_cycle;Max_cycle;Signal;HPM_P1;HPM_P2
2022/01/13 00:00:29;;;;;;;114.30;66.28;;;;;;;-4.91;97.81;97475.81;5043373;28;20053;-64
2022/01/13 00:02:54;;;;;;;101.50;64.65;;;;;;;-4.97;97.24;97483.53;5043255;28;20028;-64
2022/01/13 00:05:26;;;;;;;88.82;58.47;;;;;;;-4.99;97.05;97498.09;5049209;28;20025;-64
2022/01/13 00:07:55;;;;;;;94.03;60.28;;;;;;;-5.01;96.87;97502.38;5045771;28;20030;-63
2022/01/13 00:10:22;;;;;;;104.47;65.22;;;;;;;-5.04;97.01;97500.69;5045716;28;20524;-64
2022/01/13 00:12:50;;;;;;;91.88;57.13;;;;;;;-5.08;97.16;97500.69;5045192;28;20071;-64
2022/01/13 00:25:14;;;;;;;46.50;30.98;;;;;;;-5.15;97.37;97512.66;5047586;28;20022;-63
2022/01/13 00:27:44;;;;;;;38.38;26.23;;;;;;;-5.13;97.41;97512.69;5044060;28;20029;-63
2022/01/13 00:30:16;;;;;;;41.15;29.33;;;;;;;-5.18;97.27;97505.84;5045786;28;20029;-64
2022/01/13 00:32:41;;;;;;;59.10;40.00;;;;;;;-5.12;95.71;97498.97;5047761;28;20138;-64
2022/01/13 00:35:07;;;;;;;71.75;49.83;;;;;;;-5.16;95.90;97499.84;5045944;28;20060;-63
2022/01/13 00:37:34;;;;;;;70.07;47.97;;;;;;;-5.18;96.00;97510.09;5047476;28;20168;-63
2022/01/13 00:39:59;;;;;;;60.78;42.78;;;;;;;-5.23;96.69;97517.78;5044191;28;20073;-64
2022/01/13 00:42:25;;;;;;;57.55;38.65;;;;;;;-5.26;96.99;97527.22;5046804;28;20035;-64
2022/01/13 00:44:51;;;;;;;52.15;37.65;;;;;;;-5.30;96.96;97531.50;5027557;28;20407;-63
2022/01/13 00:47:16;;;;;;;49.17;36.33;;;;;;;-5.32;97.07;97528.09;5043643;28;20028;-64
2022/01/13 00:49:41;;;;;;;48.47;35.92;;;;;;;-5.34;97.23;97522.94;5044562;28;20035;-64
2022/01/13 00:52:07;;;;;;;51.38;35.75;;;;;;;-5.38;97.52;97522.94;5040822;28;20038;-64
2022/01/13 00:54:34;;;;;;;50.80;35.85;;;;;;;-5.40;98.75;97514.41;5041986;28;20033;-63
2022/01/13 00:57:00;;;;;;;52.53;37.60;;;;;;;-5.40;98.61;97512.66;5024847;28;20373;-63
2022/01/13 00:59:25;;;;;;;49.10;35.17;;;;;;;-5.40;98.03;97501.56;5044276;28;20025;-64
2022/01/13 01:01:53;;;;;;;43.38;33.53;;;;;;;-5.38;98.33;97499.84;5044097;28;20528;-64
2022/01/13 01:04:19;;;;;;;46.78;32.53;;;;;;;-5.41;98.74;97495.56;5042515;28;20051;-64
2022/01/13 01:06:46;;;;;;;41.63;30.38;;;;;;;-5.42;98.17;97487.84;5041860;28;20083;-64
2022/01/13 01:09:20;;;;;;;43.65;30.92;;;;;;;-5.38;97.32;97487.00;5044535;28;20044;-64
2022/01/13 01:11:48;;;;;;;44.70;32.40;;;;;;;-5.40;97.35;97497.25;5042870;28;20040;-64
2022/01/13 01:14:15;;;;;;;43.92;30.98;;;;;;;-5.42;97.57;97503.25;5048204;28;20424;-64
2022/01/13 01:16:41;;;;;;;45.20;29.95;;;;;;;-5.44;97.66;97503.25;5039632;28;20060;-64
2022/01/13 01:19:08;;;;;;;48.65;34.15;;;;;;;-5.50;97.98;97506.66;5045666;28;20029;-64
2022/01/13 01:26:50;;;;;;;23.92;19.45;;;;;;;-5.57;98.98;97498.97;5042772;28;20128;-64
2022/01/13 01:31:52;;;;;;;19.73;16.20;;;;;;;-5.57;96.93;97491.25;5040739;28;20051;-64
2022/01/13 01:36:49;;;;;;;36.03;22.73;;;;;;;-5.53;97.42;97504.09;5045287;28;20381;-63
2022/01/13 01:39:15;;;;;;;26.48;21.13;;;;;;;-5.53;97.26;97508.38;5040717;28;20056;-63
2022/01/13 01:41:43;;;;;;;28.17;21.08;;;;;;;-5.58;97.05;97500.69;5045967;28;20500;-63
2022/01/13 01:44:23;;;;;;;27.67;20.10;;;;;;;-5.60;96.91;97499.84;5041364;28;20032;-64
2022/01/13 01:46:48;;;;;;;23.67;20.25;;;;;;;-5.62;97.48;97510.09;5041017;28;20056;-64
2022/01/13 01:49:18;;;;;;;23.65;18.58;;;;;;;-5.66;97.68;97512.63;5041635;28;20128;-64
2022/01/13 01:51:46;;;;;;;27.00;19.08;;;;;;;-5.67;99.31;97508.34;5045493;28;20029;-63
2022/01/13 01:54:12;;;;;;;28.27;17.98;;;;;;;-5.70;98.05;97509.22;5039529;28;20068;-64
2022/01/13 01:56:38;;;;;;;23.05;18.80;;;;;;;-5.67;98.16;97516.06;5046362;28;20056;-64
2022/01/13 01:59:14;;;;;;;27.50;20.08;;;;;;;-5.69;97.68;97508.38;5048133;28;20029;-63
2022/01/13 02:01:42;;;;;;;25.20;19.00;;;;;;;-5.72;98.19;97505.81;5048845;28;20025;-64
2022/01/13 02:04:08;;;;;;;23.88;17.95;;;;;;;-5.75;97.53;97508.34;5032014;28;20503;-64
2022/01/13 02:06:35;;;;;;;22.70;18.88;;;;;;;-5.75;97.62;97509.22;5047483;28;20123;-64
2022/01/13 02:09:02;;;;;;;25.60;19.10;;;;;;;-5.76;98.14;97497.25;5045590;28;20557;-64
2022/01/13 02:11:29;;;;;;;26.67;20.05;;;;;;;-5.76;98.78;97502.38;5046657;28;20025;-64
2022/01/13 02:13:59;;;;;;;25.65;20.35;;;;;;;-5.78;98.20;97503.22;5047879;28;20028;-64
2022/01/13 02:18:59;;;;;;;21.37;15.80;;;;;;;-5.84;98.35;97510.91;5045808;28;20104;-64
2022/01/13 02:21:26;;;;;;;15.95;13.85;;;;;;;-5.85;98.13;97522.03;5045954;28;20340;-64
2022/01/13 02:23:52;;;;;;;17.83;14.52;;;;;;;-5.85;98.35;97509.19;5046530;28;20036;-63
2022/01/13 02:26:18;;;;;;;16.40;14.13;;;;;;;-5.83;99.04;97512.63;5046048;28;20496;-64
2022/01/13 02:28:44;;;;;;;15.20;12.45;;;;;;;-5.85;98.32;97511.75;5048335;28;20048;-64
2022/01/13 02:31:11;;;;;;;13.07;11.65;;;;;;;-5.86;97.36;97515.19;5046237;28;20106;-64
2022/01/13 02:33:37;;;;;;;14.52;12.63;;;;;;;-5.87;97.31;97522.00;5045060;28;20147;-63
2022/01/13 02:36:08;;;;;;;23.98;18.10;;;;;;;-5.89;98.48;97516.00;5048795;28;20108;-64
2022/01/13 02:38:34;;;;;;;20.25;17.10;;;;;;;-5.89;98.36;97513.44;5048258;28;20032;-64
2022/01/13 02:41:01;;;;;;;20.35;16.83;;;;;;;-5.88;98.05;97511.75;5047110;28;20029;-63
2022/01/13 02:43:29;;;;;;;19.95;16.70;;;;;;;-5.89;98.64;97513.44;5045428;28;20404;-64
2022/01/13 02:48:38;;;;;;;20.23;16.00;;;;;;;-5.94;98.00;97512.59;5046509;28;20093;-64
2022/01/13 02:51:04;;;;;;;23.55;18.25;;;;;;;-5.94;98.09;97515.16;5044502;28;20028;-63
2022/01/13 02:53:30;;;;;;;25.05;21.58;;;;;;;-5.93;98.48;97511.72;5044894;28;20041;-64
2022/01/13 02:56:01;;;;;;;24.35;20.35;;;;;;;-5.93;97.64;97504.03;5049776;28;20029;-64
2022/01/13 02:58:26;;;;;;;18.60;16.63;;;;;;;-5.95;98.01;97505.75;5045889;28;20472;-64
2022/01/13 03:00:52;;;;;;;16.00;14.30;;;;;;;-5.95;99.01;97509.19;5045232;28;20033;-64
2022/01/13 03:03:19;;;;;;;15.05;12.40;;;;;;;-5.93;98.70;97498.91;5042411;28;20052;-64
2022/01/13 03:05:44;;;;;;;13.43;11.27;;;;;;;-5.91;97.96;97502.34;5047795;28;20063;-64
2022/01/13 03:08:10;;;;;;;12.35;11.05;;;;;;;-5.91;97.38;97502.34;5050200;28;20489;-63
2022/01/13 03:10:36;;;;;;;12.85;11.25;;;;;;;-5.92;97.98;97500.63;5046620;28;20119;-63
2022/01/13 03:13:02;;;;;;;14.82;11.15;;;;;;;-5.97;98.32;97502.31;5042477;28;20112;-64
2022/01/13 03:15:28;;;;;;;11.13;10.13;;;;;;;-6.01;98.96;97498.91;5046961;28;20131;-64
2022/01/13 03:17:53;;;;;;;10.88;9.77;;;;;;;-6.00;98.91;97504.88;5047326;28;20124;-64
2022/01/13 03:20:19;;;;;;;12.05;10.35;;;;;;;-6.01;98.51;97496.34;5048761;28;20029;-63
2022/01/13 03:22:44;;;;;;;12.27;11.05;;;;;;;-6.02;98.10;97496.38;5048286;28;20036;-63
2022/01/13 03:25:10;;;;;;;11.40;10.27;;;;;;;-6.03;98.68;97502.34;5041121;28;20559;-63
2022/01/13 03:27:37;;;;;;;11.50;10.32;;;;;;;-6.06;97.98;97506.63;5048837;28;20037;-64
2022/01/13 03:30:08;;;;;;;11.82;9.75;;;;;;;-6.08;98.29;97510.03;5040970;28;20028;-63
2022/01/13 03:32:38;;;;;;;10.63;9.65;;;;;;;-6.08;98.03;97508.31;5047421;28;20041;-64
2022/01/13 03:35:05;;;;;;;10.80;9.70;;;;;;;-6.05;98.17;97512.59;5047905;28;20128;-63
2022/01/13 03:37:31;;;;;;;11.65;10.55;;;;;;;-6.07;97.75;97507.47;5047444;28;20087;-64
2022/01/13 03:39:58;;;;;;;11.68;10.50;;;;;;;-6.08;97.32;97513.47;5047593;28;20514;-64
2022/01/13 03:42:24;;;;;;;13.60;10.73;;;;;;;-6.12;97.37;97506.59;5047677;28;20112;-63
2022/01/13 03:44:50;;;;;;;11.25;10.05;;;;;;;-6.16;97.68;97506.59;5048343;28;20100;-63
2022/01/13 03:47:15;;;;;;;13.95;11.80;;;;;;;-6.21;97.61;97509.13;5046950;28;20056;-63
2022/01/13 03:49:41;;;;;;;12.48;11.20;;;;;;;-6.20;97.74;97511.69;5044094;28;20090;-63
2022/01/13 03:52:12;;;;;;;13.77;12.18;;;;;;;-6.18;97.94;97506.56;5047861;28;20473;-63
2022/01/13 03:54:38;;;;;;;13.48;10.57;;;;;;;-6.22;98.49;97509.97;5044067;28;20051;-63
2022/01/13 03:57:42;;;;;;;14.27;11.65;;;;;;;-6.24;98.41;97499.72;5048271;28;20037;-63
2022/01/13 04:00:34;;;;;;;15.70;11.95;;;;;;;-6.27;98.50;97499.69;5047315;28;20071;-63
2022/01/13 04:02:59;;;;;;;18.95;14.13;;;;;;;-6.29;97.84;97503.13;5045386;28;20021;-63
2022/01/13 04:05:25;;;;;;;19.63;15.63;;;;;;;-6.30;98.72;97506.50;5041226;28;20091;-63
2022/01/13 04:07:51;;;;;;;20.20;15.50;;;;;;;-6.35;98.47;97509.06;5038176;28;20392;-63
2022/01/13 04:10:52;;;;;;;15.00;12.32;;;;;;;-6.35;98.06;97520.19;5045066;28;20044;-63
2022/01/13 04:13:43;;;;;;;16.23;12.68;;;;;;;-6.36;98.33;97518.47;4989131;28;20040;-63
2022/01/13 04:16:08;;;;;;;14.60;11.48;;;;;;;-6.36;98.92;97517.63;5037383;28;20132;-64
2022/01/13 04:18:34;;;;;;;16.15;13.35;;;;;;;-6.36;98.28;97500.53;5046527;28;20124;-63
2022/01/13 04:21:00;;;;;;;29.27;18.40;;;;;;;-6.38;97.44;97502.22;5046821;28;20481;-63
2022/01/13 04:23:25;;;;;;;26.02;19.05;;;;;;;-6.39;98.02;97504.78;5042861;28;20037;-63
2022/01/13 04:25:51;;;;;;;28.92;21.70;;;;;;;-6.41;98.27;97494.53;5042817;28;20036;-63
2022/01/13 04:28:17;;;;;;;24.60;19.10;;;;;;;-6.38;99.02;97498.81;5041877;28;20112;-63
2022/01/13 04:30:47;;;;;;;25.25;17.30;;;;;;;-6.39;98.63;97494.53;5041036;28;20029;-63
2022/01/13 04:33:13;;;;;;;18.27;15.40;;;;;;;-6.38;98.33;97491.13;5050690;28;20499;-63
2022/01/13 04:35:42;;;;;;;29.45;20.98;;;;;;;-6.40;97.74;97500.53;5042444;28;20499;-63
2022/01/13 04:38:08;;;;;;;21.35;16.55;;;;;;;-6.41;97.69;97493.66;5039649;28;20029;-63
2022/01/13 04:40:35;;;;;;;20.40;16.00;;;;;;;-6.41;97.29;97494.53;5038582;28;20081;-63
2022/01/13 04:43:00;;;;;;;19.83;16.25;;;;;;;-6.42;97.83;97497.94;5047523;28;20036;-63
2022/01/13 04:45:26;;;;;;;21.38;18.30;;;;;;;-6.41;98.63;97493.66;5041978;28;20399;-63
2022/01/13 04:47:54;;;;;;;22.58;16.55;;;;;;;-6.43;98.94;97491.09;5038138;28;20071;-63
2022/01/13 04:50:22;;;;;;;18.50;15.23;;;;;;;-6.46;97.87;97501.34;5045368;28;20512;-63
2022/01/13 04:52:48;;;;;;;16.00;13.80;;;;;;;-6.48;98.46;97506.44;5039501;28;20013;-63
2022/01/13 04:55:21;;;;;;;21.17;14.32;;;;;;;-6.51;98.51;97503.03;5044922;28;20059;-63
2022/01/13 04:57:46;;;;;;;23.05;16.30;;;;;;;-6.51;98.76;97515.84;5039216;28;20145;-63
2022/01/13 05:00:12;;;;;;;20.15;15.48;;;;;;;-6.53;97.96;97509.84;5042161;28;20473;-63
2022/01/13 05:02:37;;;;;;;19.67;15.70;;;;;;;-6.52;98.29;97508.97;5044392;28;20047;-63
2022/01/13 05:05:04;;;;;;;23.95;17.30;;;;;;;-6.53;98.34;97504.72;5043840;28;20033;-63
2022/01/13 05:07:29;;;;;;;20.92;16.15;;;;;;;-6.57;97.97;97510.69;5044877;28;20021;-63
2022/01/13 05:09:55;;;;;;;15.68;12.88;;;;;;;-6.59;98.18;97512.38;5043707;28;20116;-63
2022/01/13 05:12:26;;;;;;;14.90;11.85;;;;;;;-6.57;97.98;97513.25;5043374;28;20055;-63
2022/01/13 05:14:55;;;;;;;16.23;13.32;;;;;;;-6.55;98.05;97514.09;5038933;28;20040;-63
2022/01/13 05:17:48;;;;;;;17.00;15.20;;;;;;;-6.57;98.20;97515.81;5044396;28;20045;-63
2022/01/13 05:20:14;;;;;;;15.93;14.23;;;;;;;-6.60;98.31;97516.66;5039984;28;20033;-63
2022/01/13 05:22:40;;;;;;;16.40;14.43;;;;;;;-6.60;98.64;97515.78;5044336;28;20018;-63
2022/01/13 05:25:05;;;;;;;15.32;13.70;;;;;;;-6.58;98.97;97514.09;5043357;28;20017;-63
2022/01/13 05:27:31;;;;;;;18.92;14.38;;;;;;;-6.63;97.92;97517.50;5041954;28;20553;-64
2022/01/13 05:29:58;;;;;;;18.00;15.10;;;;;;;-6.62;98.77;97526.06;5041236;28;20536;-63
2022/01/13 05:32:24;;;;;;;19.83;16.10;;;;;;;-6.63;98.26;97517.50;5040259;28;20033;-64
2022/01/13 05:34:49;;;;;;;25.90;16.98;;;;;;;-6.62;98.77;97521.75;5039085;28;20025;-63
2022/01/13 05:37:14;;;;;;;32.15;16.63;;;;;;;-6.64;99.81;97518.34;5042666;28;20036;-63
2022/01/13 05:39:40;;;;;;;19.23;16.40;;;;;;;-6.67;99.70;97520.03;5026349;28;20071;-63
2022/01/13 05:42:05;;;;;;;21.52;17.20;;;;;;;-6.69;98.98;97526.84;5044968;28;20040;-63
2022/01/13 05:44:37;;;;;;;21.42;16.30;;;;;;;-6.68;98.55;97518.31;5044739;28;20527;-63
2022/01/13 05:47:03;;;;;;;18.58;15.93;;;;;;;-6.64;98.68;97514.91;5041044;28;20033;-63
2022/01/13 05:49:28;;;;;;;21.90;16.88;;;;;;;-6.68;98.55;97510.63;5046492;28;20025;-63
2022/01/13 05:51:54;;;;;;;17.50;15.65;;;;;;;-6.66;98.38;97517.47;5030504;28;20018;-63
2022/01/13 05:54:19;;;;;;;20.40;16.73;;;;;;;-6.68;98.60;97505.50;5041539;28;20037;-64
2022/01/13 05:56:44;;;;;;;19.92;15.93;;;;;;;-6.70;98.43;97508.06;5042106;28;20032;-63
2022/01/13 05:59:10;;;;;;;16.92;15.18;;;;;;;-6.69;98.62;97508.91;5048067;28;20025;-63
2022/01/13 06:01:35;;;;;;;20.77;15.63;;;;;;;-6.67;99.31;97505.50;5041950;28;20025;-63
2022/01/13 06:04:00;;;;;;;19.48;15.05;;;;;;;-6.66;99.43;97507.22;5040476;28;20057;-63
2022/01/13 06:06:26;;;;;;;20.17;14.75;;;;;;;-6.71;98.66;97503.78;5040874;28;20025;-63
2022/01/13 06:08:51;;;;;;;15.02;13.43;;;;;;;-6.73;98.74;97504.63;5043144;28;20030;-63
2022/01/13 06:11:21;;;;;;;15.15;13.27;;;;;;;-6.75;98.38;97502.03;5023268;28;20040;-63
2022/01/13 06:13:47;;;;;;;14.70;13.15;;;;;;;-6.76;99.13;97503.75;5042387;28;20026;-63
2022/01/13 06:16:12;;;;;;;15.55;13.13;;;;;;;-6.78;100.00;97497.78;5043996;28;20046;-63
2022/01/13 06:18:37;;;;;;;15.63;12.85;;;;;;;-6.79;99.71;97495.19;5037369;28;20084;-63
2022/01/13 06:21:03;;;;;;;14.43;12.93;;;;;;;-6.82;99.11;97495.19;5038685;28;20021;-63
2022/01/13 06:23:28;;;;;;;15.57;12.85;;;;;;;-6.82;98.85;97497.75;5042681;28;20017;-63
2022/01/13 06:25:54;;;;;;;15.23;12.98;;;;;;;-6.78;98.92;97502.03;5044909;28;20056;-63
2022/01/13 06:28:19;;;;;;;14.82;13.27;;;;;;;-6.79;99.91;97510.56;5039718;28;20071;-63
2022/01/13 06:30:44;;;;;;;16.58;13.27;;;;;;;-6.79;100.00;97513.13;5037280;28;20205;-63
2022/01/13 06:33:10;;;;;;;16.67;13.48;;;;;;;-6.80;99.83;97506.28;5038844;28;20037;-63
2022/01/13 06:35:36;;;;;;;18.13;13.40;;;;;;;-6.79;99.13;97496.06;5046250;28;20458;-63
2022/01/13 06:38:01;;;;;;;19.00;14.60;;;;;;;-6.74;98.62;97508.03;5041722;28;20043;-63
2022/01/13 06:40:27;;;;;;;20.35;16.73;;;;;;;-6.74;98.38;97513.16;5045304;28;20175;-64
2022/01/13 06:42:52;;;;;;;24.85;17.25;;;;;;;-6.76;98.40;97513.13;5042881;28;20029;-64
2022/01/13 06:45:18;;;;;;;18.27;15.90;;;;;;;-6.79;98.13;97516.56;5048346;28;20036;-64
2022/01/13 06:47:44;;;;;;;23.75;16.05;;;;;;;-6.80;97.83;97508.84;5047214;28;20029;-63
2022/01/13 06:50:11;;;;;;;16.80;13.90;;;;;;;-6.80;97.89;97519.09;5046096;28;20059;-63
2022/01/13 06:52:37;;;;;;;24.02;19.45;;;;;;;-6.84;98.39;97518.25;5041780;28;20101;-63
2022/01/13 06:55:03;;;;;;;33.88;24.40;;;;;;;-6.78;97.83;97527.66;5047002;28;20032;-61
2022/01/13 06:57:32;;;;;;;47.80;31.10;;;;;;;-6.74;98.14;97531.97;5038814;28;20507;-63
2022/01/13 06:59:57;;;;;;;31.13;24.73;;;;;;;-6.79;97.78;97531.06;5045367;28;20495;-64
2022/01/13 07:02:24;;;;;;;42.50;28.70;;;;;;;-6.84;98.68;97543.84;5038536;28;20037;-62
2022/01/13 07:04:49;;;;;;;28.73;21.73;;;;;;;-6.85;99.96;97541.28;5046998;28;20481;-62
2022/01/13 07:07:16;;;;;;;34.72;22.63;;;;;;;-6.83;99.76;97537.88;5048337;28;20078;-62
2022/01/13 07:09:41;;;;;;;25.55;20.40;;;;;;;-6.81;99.97;97536.19;5042114;28;20033;-64
2022/01/13 07:12:09;;;;;;;26.95;19.17;;;;;;;-6.78;99.51;97532.75;5049869;28;20021;-63
2022/01/13 07:14:34;;;;;;;30.77;21.42;;;;;;;-6.78;99.19;97535.31;5042080;28;20032;-62
2022/01/13 07:17:00;;;;;;;42.03;28.23;;;;;;;-6.76;99.60;97525.94;5044765;28;20139;-52
2022/01/13 07:19:25;;;;;;;46.15;29.20;;;;;;;-6.75;99.52;97525.09;5026144;28;20087;-56
2022/01/13 07:21:51;;;;;;;38.00;27.35;;;;;;;-6.78;99.91;97525.94;5043435;28;20518;-56
2022/01/13 07:24:16;;;;;;;33.00;24.35;;;;;;;-6.79;100.00;97521.69;5043647;28;20545;-54
2022/01/13 07:26:42;;;;;;;37.83;24.55;;;;;;;-6.81;100.00;97518.25;5048343;28;20043;-56
2022/01/13 07:29:08;;;;;;;35.70;25.75;;;;;;;-6.81;100.00;97523.38;5041976;28;20134;-53
2022/01/13 07:31:35;;;;;;;37.65;27.65;;;;;;;-6.79;99.82;97521.69;5046976;28;20496;-51
2022/01/13 07:34:01;;;;;;;36.40;27.58;;;;;;;-6.76;99.62;97523.38;5044406;28;20029;-51
2022/01/13 07:36:26;;;;;;;34.92;25.20;;;;;;;-6.75;100.00;97532.78;5046408;28;20020;-54
2022/01/13 07:38:52;;;;;;;39.35;25.83;;;;;;;-6.71;100.00;97529.41;5046251;28;20017;-53
2022/01/13 07:41:17;;;;;;;36.40;23.80;;;;;;;-6.70;100.00;97532.81;5048622;28;20119;-51
2022/01/13 07:43:47;;;;;;;28.13;22.63;;;;;;;-6.71;99.10;97536.22;5048009;28;20024;-50
2022/01/13 07:46:13;;;;;;;37.42;24.00;;;;;;;-6.66;99.31;97535.41;5043691;28;20061;-53
2022/01/13 07:48:39;;;;;;;33.47;25.65;;;;;;;-6.62;99.62;97539.69;5045092;28;20029;-50
2022/01/13 07:51:04;;;;;;;31.00;23.63;;;;;;;-6.64;99.66;97541.41;5047089;28;20047;-52
2022/01/13 07:53:29;;;;;;;28.50;22.40;;;;;;;-6.63;99.10;97553.38;5047811;28;20096;-54
2022/01/13 07:55:55;;;;;;;27.92;21.33;;;;;;;-6.62;99.66;97552.50;5045325;28;20061;-54
2022/01/13 07:58:20;;;;;;;27.70;20.35;;;;;;;-6.59;99.60;97556.81;5048469;28;20444;-55
2022/01/13 08:00:46;;;;;;;35.90;22.70;;;;;;;-6.58;99.49;97557.66;5045826;28;20037;-55
2022/01/13 08:03:11;;;;;;;48.83;31.25;;;;;;;-6.54;99.01;97560.25;5048849;28;20025;-51
2022/01/13 08:05:37;;;;;;;59.67;35.75;;;;;;;-6.48;99.68;97549.19;5044442;28;20029;-53
2022/01/13 08:08:03;;;;;;;56.85;33.90;;;;;;;-6.47;99.80;97550.91;5047597;28;20096;-53
2022/01/13 08:10:28;;;;;;;42.20;27.13;;;;;;;-6.51;99.77;97542.31;5039595;28;20029;-53
2022/01/13 08:12:54;;;;;;;40.15;26.38;;;;;;;-6.50;99.96;97544.03;5049027;28;20424;-53
2022/01/13 08:15:19;;;;;;;31.42;22.27;;;;;;;-6.45;100.00;97548.31;5046381;28;20056;-52
2022/01/13 08:20:32;;;;;;;40.85;27.55;;;;;;;-6.42;99.90;97566.28;5038732;28;20040;-50
2022/01/13 08:22:58;;;;;;;41.53;27.85;;;;;;;-6.40;100.00;97560.31;5046254;28;20017;-52
2022/01/13 08:25:25;;;;;;;43.53;26.40;;;;;;;-6.39;100.00;97564.59;5046318;28;20037;-53
2022/01/13 08:27:50;;;;;;;43.55;28.08;;;;;;;-6.37;100.00;97568.03;5039519;28;20040;-55
2022/01/13 08:30:16;;;;;;;38.58;26.08;;;;;;;-6.36;100.00;97568.91;5042656;28;20032;-52
2022/01/13 08:32:42;;;;;;;36.03;24.30;;;;;;;-6.35;100.00;97568.88;5044722;28;20044;-55
2022/01/13 08:35:09;;;;;;;35.10;26.80;;;;;;;-6.30;100.00;97560.34;5042485;28;20029;-54
2022/01/13 08:37:34;;;;;;;39.78;27.35;;;;;;;-6.28;100.00;97566.38;5041248;28;20049;-55
2022/01/13 08:40:02;;;;;;;40.90;30.65;;;;;;;-6.25;100.00;97566.38;5037605;28;20503;-52
2022/01/13 08:42:28;;;;;;;42.55;30.33;;;;;;;-6.22;100.00;97564.66;5047702;28;20503;-50
2022/01/13 08:44:53;;;;;;;41.45;30.15;;;;;;;-6.20;100.00;97562.13;5043782;28;20034;-53
2022/01/13 08:47:19;;;;;;;44.00;30.50;;;;;;;-6.20;100.00;97562.97;5041908;28;20031;-52
2022/01/13 08:49:45;;;;;;;34.35;26.48;;;;;;;-6.16;100.00;97553.59;5043608;28;20695;-52
2022/01/13 08:52:11;;;;;;;37.97;28.15;;;;;;;-6.12;100.00;97557.03;5040141;28;20083;-52
2022/01/13 08:54:36;;;;;;;39.05;27.30;;;;;;;-6.09;100.00;97557.03;5042986;28;20029;-52
2022/01/13 08:57:02;;;;;;;32.90;26.45;;;;;;;-6.10;100.00;97547.63;5046688;28;20040;-53
2022/01/13 08:59:28;;;;;;;37.67;27.35;;;;;;;-6.11;100.00;97551.88;5042189;28;20151;-55
2022/01/13 09:01:53;;;;;;;36.67;28.10;;;;;;;-6.06;100.00;97542.53;5043698;28;20083;-54
2022/01/13 09:04:19;;;;;;;41.58;31.05;;;;;;;-6.00;100.00;97543.34;5043831;28;20044;-53
2022/01/13 09:06:45;;;;;;;46.05;33.55;;;;;;;-5.94;100.00;97558.75;5044851;28;20025;-56
2022/01/13 09:09:10;;;;;;;47.80;33.60;;;;;;;-5.91;100.00;97559.63;5049959;28;20028;-51
2022/01/13 09:11:35;;;;;;;43.58;33.55;;;;;;;-5.88;100.00;97553.63;5040953;28;20502;-55
2022/01/13 09:14:01;;;;;;;45.30;30.88;;;;;;;-5.87;100.00;97560.50;5043651;28;20017;-52
2022/01/13 09:16:30;;;;;;;44.92;28.88;;;;;;;-5.81;100.00;97569.91;5045048;28;20037;-54
2022/01/13 09:21:21;;;;;;;41.08;29.67;;;;;;;-5.71;100.00;97592.19;5042698;28;20044;-55
2022/01/13 09:23:46;;;;;;;41.97;28.95;;;;;;;-5.67;100.00;97593.91;5043940;28;20036;-52
2022/01/13 09:26:12;;;;;;;36.92;27.23;;;;;;;-5.66;100.00;97575.09;5038760;28;20124;-54
2022/01/13 09:28:37;;;;;;;36.10;28.10;;;;;;;-5.65;100.00;97584.50;5039192;28;20485;-49
2022/01/13 09:31:04;;;;;;;38.65;30.77;;;;;;;-5.32;100.00;97592.28;5041435;28;20370;-51
2022/01/13 09:33:30;;;;;;;44.40;34.92;;;;;;;-4.63;100.00;97585.44;5045005;28;20028;-51
2022/01/13 09:35:55;;;;;;;96.20;57.30;;;;;;;-3.99;97.98;97587.84;5043972;28;20508;-53
2022/01/13 09:38:21;;;;;;;70.38;44.53;;;;;;;-3.43;96.74;97596.13;5038885;28;20036;-52
2022/01/13 09:40:48;;;;;;;41.00;31.80;;;;;;;-2.98;95.42;97584.66;5042977;28;20124;-53
2022/01/13 09:43:14;;;;;;;55.80;33.80;;;;;;;-2.70;93.15;97592.16;5038358;28;20037;-53
2022/01/13 09:45:39;;;;;;;31.90;25.65;;;;;;;-2.50;91.78;97585.09;5040111;28;20408;-56
2022/01/13 09:48:05;;;;;;;28.02;22.58;;;;;;;-2.32;89.47;97591.81;5037443;28;20029;-53
2022/01/13 09:50:31;;;;;;;45.90;31.75;;;;;;;-2.07;91.09;97586.38;5040703;28;20486;-53
2022/01/13 09:52:56;;;;;;;31.20;22.13;;;;;;;-1.96;89.19;97583.69;5029077;28;20056;-55
2022/01/13 09:55:22;;;;;;;26.23;19.10;;;;;;;-1.91;87.91;97574.16;5040967;28;20029;-55
2022/01/13 09:57:50;;;;;;;24.83;18.92;;;;;;;-1.74;87.44;97573.94;5036235;28;20029;-55
2022/01/13 10:00:25;;;;;;;25.20;16.70;;;;;;;-1.76;87.35;97565.34;5042306;28;20402;-53
2022/01/13 10:02:51;;;;;;;23.50;17.73;;;;;;;-1.62;88.45;97572.06;5039078;28;20020;-54
2022/01/13 10:05:18;;;;;;;18.55;16.58;;;;;;;-1.74;88.10;97573.09;5039512;28;20033;-53
2022/01/13 10:07:45;;;;;;;18.52;14.13;;;;;;;-1.59;89.73;97582.34;5044645;28;20044;-53
2022/01/13 10:10:14;;;;;;;16.50;14.77;;;;;;;-1.50;87.91;97573.63;5041245;28;20068;-54
2022/01/13 10:12:42;;;;;;;18.05;14.35;;;;;;;-1.52;87.23;97576.22;5041735;28;20017;-53
2022/01/13 10:18:06;;;;;;;18.77;13.57;;;;;;;-1.39;84.90;97573.47;5040948;28;20159;-55
2022/01/13 10:20:33;;;;;;;16.33;13.52;;;;;;;-1.06;86.96;97568.66;5038842;28;20079;-54
2022/01/13 10:23:10;;;;;;;15.68;12.82;;;;;;;-0.97;83.26;97565.09;5041716;28;20501;-51
2022/01/13 10:25:37;;;;;;;15.77;12.18;;;;;;;-0.84;83.07;97560.56;5052015;28;20017;-53
2022/01/13 10:28:13;;;;;;;18.60;14.48;;;;;;;-0.54;84.24;97545.41;5039222;28;20053;-54
2022/01/13 10:30:42;;;;;;;15.15;13.55;;;;;;;-0.62;82.53;97551.56;5041698;28;20030;-54
2022/01/13 10:33:35;;;;;;;18.08;16.27;;;;;;;-0.48;81.62;97550.47;5043534;28;20563;-53
2022/01/13 10:36:09;;;;;;;18.55;16.73;;;;;;;-0.24;85.37;97553.47;5037397;28;20037;-53
2022/01/13 10:38:53;;;;;;;19.27;15.70;;;;;;;-0.17;82.52;97542.09;5040372;28;20087;-54
2022/01/13 10:42:01;;;;;;;17.55;14.80;;;;;;;-0.19;80.46;97543.88;5047696;28;20063;-55
2022/01/13 10:44:24;;;;;;;20.15;15.65;;;;;;;-0.02;79.99;97536.63;5044829;28;20032;-54
2022/01/13 10:47:05;;;;;;;26.40;23.70;;;;;;;0.08;80.36;97536.41;5028866;28;20070;-53
2022/01/13 10:49:36;;;;;;;20.88;18.73;;;;;;;0.16;78.58;97534.53;5050748;28;20037;-52
2022/01/13 10:52:26;;;;;;;20.65;16.00;;;;;;;0.18;76.74;97537.94;5040203;28;20554;-54
2022/01/13 10:54:53;;;;;;;19.35;17.27;;;;;;;0.24;80.20;97532.63;5042401;28;20327;-52
2022/01/13 10:57:23;;;;;;;22.45;19.02;;;;;;;0.17;78.33;97533.66;5047558;28;20033;-51
2022/01/13 10:59:49;;;;;;;27.08;21.35;;;;;;;0.38;79.50;97534.91;5043894;28;20025;-51
2022/01/13 11:02:14;;;;;;;21.02;18.65;;;;;;;0.69;78.13;97538.56;5052137;28;20512;-54
2022/01/13 11:04:40;;;;;;;20.67;17.88;;;;;;;1.06;76.81;97527.31;5043353;28;20056;-53
2022/01/13 11:07:18;;;;;;;21.38;19.17;;;;;;;1.11;73.10;97532.41;5045738;28;20100;-54
2022/01/13 11:09:56;;;;;;;25.70;20.30;;;;;;;0.99;73.90;97536.13;5049248;28;20060;-54
2022/01/13 11:12:44;;;;;;;21.23;18.88;;;;;;;1.06;74.97;97535.09;5042568;28;20386;-54
2022/01/13 11:15:15;;;;;;;23.63;19.10;;;;;;;0.79;72.88;97524.50;5037543;28;20366;-52
2022/01/13 11:17:45;;;;;;;21.45;17.77;;;;;;;0.74;73.06;97526.34;5043456;28;20025;-53
2022/01/13 11:20:14;;;;;;;19.27;17.38;;;;;;;0.94;73.77;97522.41;5043433;28;20029;-53
2022/01/13 11:22:42;;;;;;;30.80;18.25;;;;;;;1.31;73.58;97518.91;5041306;28;20045;-52
2022/01/13 11:25:10;;;;;;;21.05;18.75;;;;;;;1.34;72.19;97516.22;5050609;28;20061;-54
2022/01/13 11:27:36;;;;;;;23.13;19.50;;;;;;;1.22;72.64;97513.97;5045641;28;20432;-56
2022/01/13 11:30:05;;;;;;;26.55;22.23;;;;;;;1.11;72.41;97512.47;5042509;28;20026;-53
2022/01/13 11:32:30;;;;;;;35.72;27.20;;;;;;;1.03;71.93;97511.84;5045243;28;20028;-54
2022/01/13 11:35:00;;;;;;;22.25;19.17;;;;;;;1.15;72.88;97502.88;5049355;28;20408;-55
2022/01/13 11:37:28;;;;;;;22.98;18.73;;;;;;;1.09;71.04;97495.25;5038790;28;20044;-55
2022/01/13 11:39:53;;;;;;;19.33;17.27;;;;;;;1.21;70.68;97496.66;5044974;28;20025;-54
2022/01/13 11:42:18;;;;;;;20.42;18.42;;;;;;;1.52;70.22;97493.28;5043099;28;20047;-55
2022/01/13 11:44:44;;;;;;;20.15;17.83;;;;;;;1.86;69.86;97493.19;5046453;28;20032;-56
2022/01/13 11:47:25;;;;;;;19.73;17.63;;;;;;;2.34;66.11;97487.50;5041489;28;20496;-56
2022/01/13 11:50:03;;;;;;;19.55;17.60;;;;;;;2.75;66.24;97479.28;5042058;28;20025;-56
2022/01/13 11:52:50;;;;;;;20.05;17.50;;;;;;;2.91;65.42;97487.44;5046649;28;20029;-53